Time;durP1;ratioP1;P1;durP2;ratioP2;P2;SDS_P1;SDS_P2;PMS_P1;PMS_P2;Temp;Humidity;BMP_temperature;BMP_pressure;BME280_temperature;BME280_humidity;BME280_pressure;Samples;Min_cycle;Max_cycle;Signal;HPM_P1;HPM_P2
2022/09/27 00:00:17;;;;;;;2.73;1.80;;;13.70;99.90;;;;;;5017467;28;20484;-56
2022/09/27 00:02:47;;;;;;;4.27;1.90;;;13.60;99.90;;;;;;5017681;28;20477;-59
2022/09/27 00:05:14;;;;;;;2.07;1.70;;;13.60;99.90;;;;;;5017463;28;20910;-59
2022/09/27 00:07:41;;;;;;;6.70;1.80;;;13.50;99.90;;;;;;5017439;28;20456;-59
2022/09/27 00:10:08;;;;;;;2.23;1.80;;;13.50;99.90;;;;;;5017469;28;20459;-50
2022/09/27 00:12:35;;;;;;;3.30;2.17;;;13.50;99.90;;;;;;5017029;28;20568;-58
2022/09/27 00:15:03;;;;;;;2.13;1.50;;;13.60;99.90;;;;;;5017213;28;20463;-58
2022/09/27 00:17:29;;;;;;;2.20;1.73;;;13.60;99.90;;;;;;5016815;28;20455;-57
2022/09/27 00:19:59;;;;;;;1.87;1.73;;;13.50;99.90;;;;;;5017181;28;20592;-58
2022/09/27 00:22:26;;;;;;;2.40;1.60;;;13.50;99.90;;;;;;5017250;28;20540;-57
2022/09/27 00:24:53;;;;;;;1.50;1.30;;;13.50;99.90;;;;;;5017221;28;20437;-57
2022/09/27 00:27:21;;;;;;;1.93;1.73;;;13.50;99.90;;;;;;5017617;28;20555;-57
2022/09/27 00:29:48;;;;;;;2.00;1.77;;;13.60;99.90;;;;;;5018169;28;20441;-51
2022/09/27 00:32:15;;;;;;;2.13;1.63;;;13.50;99.90;;;;;;5018057;28;20459;-60
2022/09/27 00:34:42;;;;;;;6.13;2.00;;;13.50;99.90;;;;;;5017688;28;20469;-59
2022/09/27 00:37:11;;;;;;;6.03;1.90;;;13.60;99.90;;;;;;5016480;28;20445;-55
2022/09/27 00:39:38;;;;;;;2.47;1.70;;;13.60;99.90;;;;;;5016323;28;20564;-60
2022/09/27 00:42:12;;;;;;;1.70;1.60;;;13.50;99.90;;;;;;5016603;28;20456;-59
2022/09/27 00:45:00;;;;;;;1.57;1.47;;;13.50;99.90;;;;;;5017055;28;20501;-58
2022/09/27 00:47:31;;;;;;;4.90;2.30;;;13.50;99.90;;;;;;5017146;28;20473;-60
2022/09/27 00:50:02;;;;;;;2.20;1.90;;;13.50;99.90;;;;;;5016772;28;20426;-60
2022/09/27 00:52:36;;;;;;;3.63;1.97;;;13.50;99.90;;;;;;5016449;28;20774;-51
2022/09/27 00:55:08;;;;;;;2.90;1.70;;;13.50;99.90;;;;;;5016337;28;20472;-60
2022/09/27 00:57:35;;;;;;;1.77;1.20;;;13.50;99.90;;;;;;5016469;28;20937;-59
2022/09/27 01:00:05;;;;;;;3.20;1.50;;;13.50;99.90;;;;;;5016755;28;20802;-57
2022/09/27 01:02:35;;;;;;;1.80;1.60;;;13.50;99.90;;;;;;5016412;28;20504;-60
2022/09/27 01:05:06;;;;;;;1.90;1.70;;;13.50;99.90;;;;;;5016401;28;20457;-59
2022/09/27 01:07:34;;;;;;;2.83;2.20;;;13.60;99.90;;;;;;5016731;28;20480;-60
2022/09/27 01:10:14;;;;;;;2.13;1.90;;;13.60;99.90;;;;;;5016746;28;20536;-53
2022/09/27 01:13:22;;;;;;;2.40;1.70;;;13.60;99.90;;;;;;5016479;28;20437;-56
2022/09/27 01:16:09;;;;;;;2.37;1.47;;;13.50;99.90;;;;;;5016333;28;20468;-60
2022/09/27 01:18:54;;;;;;;2.50;1.70;;;13.50;99.90;;;;;;5016447;28;20451;-59
2022/09/27 01:21:46;;;;;;;2.70;1.50;;;13.40;99.90;;;;;;5016592;28;20490;-59
2022/09/27 01:24:54;;;;;;;2.50;1.73;;;13.40;99.90;;;;;;5012168;28;20861;-54
2022/09/27 01:27:49;;;;;;;1.93;1.47;;;13.30;99.90;;;;;;5020640;28;20500;-55
2022/09/27 01:30:30;;;;;;;3.67;1.67;;;13.30;99.90;;;;;;5020291;28;20523;-58
2022/09/27 01:33:15;;;;;;;1.93;1.60;;;13.40;99.90;;;;;;5020791;28;20429;-49
2022/09/27 01:35:56;;;;;;;2.17;1.83;;;13.40;99.90;;;;;;5019751;28;20519;-57
2022/09/27 01:38:30;;;;;;;4.43;2.20;;;13.40;99.90;;;;;;5020497;28;20444;-56
2022/09/27 01:41:04;;;;;;;5.87;1.67;;;13.40;99.90;;;;;;5020569;28;20488;-56
2022/09/27 01:43:39;;;;;;;3.63;1.80;;;13.40;99.90;;;;;;5020061;28;20532;-59
2022/09/27 01:46:11;;;;;;;2.50;2.20;;;13.40;99.90;;;;;;5019996;28;20428;-60
2022/09/27 01:48:42;;;;;;;3.80;1.90;;;13.40;99.90;;;;;;5020369;28;20429;-58
2022/09/27 01:51:15;;;;;;;2.30;1.60;;;13.40;99.90;;;;;;5020229;28;20933;-59
2022/09/27 01:53:51;;;;;;;2.33;1.57;;;13.40;99.90;;;;;;5019725;28;20734;-59
2022/09/27 01:56:23;;;;;;;2.30;1.90;;;13.40;99.90;;;;;;5020111;28;20433;-60
2022/09/27 01:59:01;;;;;;;2.77;1.70;;;13.40;99.90;;;;;;5019856;28;20485;-59
2022/09/27 02:01:32;;;;;;;2.57;1.97;;;13.50;99.90;;;;;;5019544;28;20560;-58
2022/09/27 02:04:01;;;;;;;2.60;1.50;;;13.50;99.90;;;;;;5019625;28;20520;-53
2022/09/27 02:06:34;;;;;;;1.70;1.27;;;13.40;99.90;;;;;;5019706;28;20465;-59
2022/09/27 02:09:12;;;;;;;1.67;1.40;;;13.50;99.90;;;;;;5019830;28;20445;-59
2022/09/27 02:11:50;;;;;;;5.80;1.77;;;13.50;99.90;;;;;;5020230;28;20429;-59
2022/09/27 02:14:23;;;;;;;4.50;1.77;;;13.50;99.90;;;;;;5019579;28;20428;-60
2022/09/27 02:16:59;;;;;;;3.00;1.60;;;13.50;99.90;;;;;;5019692;28;20459;-60
2022/09/27 02:19:38;;;;;;;1.77;1.50;;;13.50;99.90;;;;;;5019337;28;20482;-60
2022/09/27 02:22:14;;;;;;;3.77;1.70;;;13.60;99.90;;;;;;5019866;28;20441;-61
2022/09/27 02:24:46;;;;;;;4.40;1.77;;;13.60;99.90;;;;;;5019587;28;20444;-60
2022/09/27 02:27:17;;;;;;;3.53;1.57;;;13.60;99.90;;;;;;5019407;28;20468;-59
2022/09/27 02:29:50;;;;;;;1.43;1.23;;;13.60;99.90;;;;;;5019351;28;20521;-56
2022/09/27 02:32:19;;;;;;;2.33;1.70;;;13.60;99.90;;;;;;5019483;28;20425;-60
2022/09/27 02:34:47;;;;;;;2.47;1.80;;;13.60;99.90;;;;;;5018830;28;20484;-60
2022/09/27 02:37:14;;;;;;;2.53;1.50;;;13.70;99.90;;;;;;5017955;28;20548;-60
2022/09/27 02:39:42;;;;;;;2.57;1.23;;;13.70;99.90;;;;;;5018820;28;20527;-59
2022/09/27 02:42:09;;;;;;;1.93;1.40;;;13.80;99.90;;;;;;5018569;28;20504;-61
2022/09/27 02:44:37;;;;;;;1.93;1.47;;;13.80;99.90;;;;;;5022497;28;20476;-61
2022/09/27 02:47:28;;;;;;;2.20;1.97;;;13.80;99.90;;;;;;5019706;28;20506;-59
2022/09/27 02:50:09;;;;;;;2.10;1.60;;;13.80;99.90;;;;;;5019501;28;20481;-57
2022/09/27 02:52:45;;;;;;;6.40;1.30;;;13.80;99.90;;;;;;5019108;28;20882;-60
2022/09/27 02:55:18;;;;;;;2.17;1.27;;;13.80;99.90;;;;;;5018931;28;20825;-60
2022/09/27 02:58:01;;;;;;;2.80;1.57;;;13.80;99.90;;;;;;5018430;28;20429;-60
2022/09/27 03:00:41;;;;;;;3.13;1.23;;;13.80;99.90;;;;;;5018437;28;20480;-61
2022/09/27 03:03:14;;;;;;;2.20;1.67;;;13.80;99.90;;;;;;5019133;28;21025;-52
2022/09/27 03:05:45;;;;;;;1.80;1.20;;;13.80;99.90;;;;;;5018611;28;20430;-60
2022/09/27 03:08:13;;;;;;;1.87;1.33;;;13.70;99.90;;;;;;5018822;28;20456;-59
2022/09/27 03:10:40;;;;;;;2.93;1.90;;;13.70;99.90;;;;;;5018573;28;20820;-57
2022/09/27 03:13:07;;;;;;;2.77;1.67;;;13.70;99.90;;;;;;5018843;28;20444;-58
2022/09/27 03:15:34;;;;;;;4.60;1.50;;;13.70;99.90;;;;;;5018263;28;20453;-60
2022/09/27 03:18:01;;;;;;;2.60;1.90;;;13.70;99.90;;;;;;5018662;28;20548;-56
2022/09/27 03:20:30;;;;;;;5.70;1.80;;;13.70;99.90;;;;;;5018163;28;20485;-58
2022/09/27 03:22:57;;;;;;;2.07;1.63;;;13.70;99.90;;;;;;5018146;28;20429;-60
2022/09/27 03:25:24;;;;;;;2.37;1.67;;;13.70;99.90;;;;;;5018363;28;20469;-58
2022/09/27 03:27:51;;;;;;;2.90;1.93;;;13.70;99.90;;;;;;5018223;28;20461;-59
2022/09/27 03:30:19;;;;;;;1.70;1.47;;;13.70;99.90;;;;;;5018371;28;20524;-55
2022/09/27 03:32:49;;;;;;;2.40;2.20;;;13.70;99.90;;;;;;5018159;28;20429;-57
2022/09/27 03:35:15;;;;;;;2.53;1.57;;;13.60;99.90;;;;;;5018315;28;20480;-61
2022/09/27 03:37:46;;;;;;;4.80;1.50;;;13.60;99.90;;;;;;5018501;28;20828;-57
2022/09/27 03:40:13;;;;;;;2.13;1.43;;;13.60;99.90;;;;;;5017781;28;20447;-54
2022/09/27 03:42:40;;;;;;;3.73;1.70;;;13.50;99.90;;;;;;5017942;28;20533;-51
2022/09/27 03:45:07;;;;;;;2.30;2.00;;;13.60;99.90;;;;;;5017980;28;20473;-60
2022/09/27 03:47:34;;;;;;;2.00;1.77;;;13.60;99.90;;;;;;5017171;28;20442;-57
2022/09/27 03:50:01;;;;;;;3.87;1.60;;;13.60;99.90;;;;;;5016940;28;20441;-53
2022/09/27 03:52:28;;;;;;;3.03;1.70;;;13.60;99.90;;;;;;5018327;28;20504;-59
2022/09/27 03:54:56;;;;;;;3.43;1.73;;;13.60;99.90;;;;;;5018266;28;20519;-54
2022/09/27 03:57:23;;;;;;;1.57;1.47;;;13.60;99.90;;;;;;5016947;28;20485;-60
2022/09/27 03:59:53;;;;;;;4.60;1.93;;;13.60;99.90;;;;;;5017951;28;20477;-56
2022/09/27 04:02:20;;;;;;;2.07;1.60;;;13.60;99.90;;;;;;5017107;28;20496;-58
2022/09/27 04:04:46;;;;;;;2.70;2.07;;;13.50;99.90;;;;;;5017821;28;20493;-60
2022/09/27 04:07:13;;;;;;;2.27;1.83;;;13.50;99.90;;;;;;5017693;28;20476;-56
2022/09/27 04:09:41;;;;;;;2.03;1.67;;;13.50;99.90;;;;;;5017670;28;20477;-60
2022/09/27 04:12:09;;;;;;;3.10;2.37;;;13.50;99.90;;;;;;5017692;28;20457;-59
2022/09/27 04:14:36;;;;;;;4.20;1.83;;;13.50;99.90;;;;;;5017275;28;20481;-57
2022/09/27 04:17:03;;;;;;;3.10;2.37;;;13.50;99.90;;;;;;5017411;28;20475;-55
2022/09/27 04:19:33;;;;;;;3.70;2.00;;;13.50;99.90;;;;;;5016934;28;20468;-60
2022/09/27 04:22:05;;;;;;;1.77;1.37;;;13.50;99.90;;;;;;5016968;28;20995;-54
2022/09/27 04:24:32;;;;;;;1.70;1.50;;;13.50;99.90;;;;;;5017105;28;20422;-58
2022/09/27 04:26:59;;;;;;;4.97;2.43;;;13.50;99.90;;;;;;5016630;28;20551;-60
2022/09/27 04:29:28;;;;;;;2.03;1.83;;;13.40;99.90;;;;;;5017194;28;20449;-59
2022/09/27 04:31:55;;;;;;;5.50;1.90;;;13.40;99.90;;;;;;5016829;28;20897;-56
2022/09/27 04:36:25;;;;;;;2.07;1.60;;;13.40;99.90;;;;;;5017110;28;20527;-59
2022/09/27 04:37:10;;;;;;;2.50;1.90;;;13.40;99.90;;;;;;5016420;28;20460;-59
2022/09/27 04:39:38;;;;;;;2.40;1.83;;;13.40;99.90;;;;;;5016995;28;20527;-59
2022/09/27 04:42:05;;;;;;;2.20;1.77;;;13.40;99.90;;;;;;5016321;28;20524;-52
2022/09/27 04:44:33;;;;;;;6.03;1.47;;;13.30;99.90;;;;;;5016839;28;20453;-59
2022/09/27 04:47:01;;;;;;;2.37;1.53;;;13.30;99.90;;;;;;5017520;28;20520;-58
2022/09/27 04:49:28;;;;;;;2.20;2.00;;;13.20;99.90;;;;;;5016759;28;20547;-59
2022/09/27 04:51:55;;;;;;;3.03;1.60;;;13.20;99.90;;;;;;5016161;28;20544;-60
2022/09/27 04:54:22;;;;;;;10.53;1.77;;;13.10;99.90;;;;;;5016799;28;20470;-59
2022/09/27 04:56:52;;;;;;;4.40;2.10;;;13.10;99.90;;;;;;5016707;28;20473;-59
2022/09/27 04:59:19;;;;;;;2.97;1.97;;;13.10;99.90;;;;;;5017070;28;20434;-51
2022/09/27 05:01:48;;;;;;;2.30;1.60;;;13.00;99.90;;;;;;5016336;28;20576;-61
2022/09/27 05:04:15;;;;;;;2.03;1.70;;;13.00;99.90;;;;;;5017167;28;20500;-61
2022/09/27 05:06:41;;;;;;;2.00;1.40;;;13.00;99.90;;;;;;5018483;28;20449;-57
2022/09/27 05:09:08;;;;;;;4.37;2.40;;;12.90;99.90;;;;;;5016714;28;20451;-60
2022/09/27 05:11:36;;;;;;;2.33;1.73;;;12.90;99.90;;;;;;5017054;28;20451;-59
2022/09/27 05:14:03;;;;;;;2.00;1.73;;;12.90;99.90;;;;;;5016694;28;20484;-53
2022/09/27 05:16:30;;;;;;;2.70;2.00;;;12.80;99.90;;;;;;5016878;28;20453;-58
2022/09/27 05:18:58;;;;;;;5.00;2.07;;;12.80;99.90;;;;;;5016650;28;20499;-62
2022/09/27 05:21:30;;;;;;;3.77;1.43;;;12.80;99.90;;;;;;5016374;28;20987;-55
2022/09/27 05:23:57;;;;;;;3.80;2.03;;;12.80;99.90;;;;;;5017055;28;20442;-60
2022/09/27 05:26:24;;;;;;;4.00;2.17;;;12.80;99.90;;;;;;5016711;28;20465;-57
2022/09/27 05:28:51;;;;;;;2.27;1.87;;;12.80;99.90;;;;;;5016013;28;20501;-60
2022/09/27 05:31:18;;;;;;;2.50;2.30;;;12.80;99.90;;;;;;5017213;28;20493;-62
2022/09/27 05:33:45;;;;;;;3.77;2.17;;;12.70;99.90;;;;;;5019763;28;20430;-58
2022/09/27 05:36:16;;;;;;;3.53;2.10;;;12.70;99.90;;;;;;5017508;28;20492;-59
2022/09/27 05:38:43;;;;;;;2.23;1.60;;;12.60;99.90;;;;;;5019206;28;20523;-60
2022/09/27 05:41:10;;;;;;;2.30;1.73;;;12.60;99.90;;;;;;5014008;28;20495;-57
2022/09/27 05:43:37;;;;;;;5.53;2.27;;;12.60;99.90;;;;;;5014610;28;20549;-61
2022/09/27 05:46:04;;;;;;;2.77;2.07;;;12.50;99.90;;;;;;5017332;28;20477;-62
2022/09/27 05:48:31;;;;;;;2.80;1.73;;;12.50;99.90;;;;;;5024091;28;20476;-47
2022/09/27 05:50:58;;;;;;;2.87;1.60;;;12.50;99.90;;;;;;5037890;28;20462;-49
2022/09/27 05:53:27;;;;;;;3.33;2.30;;;12.60;99.90;;;;;;5048553;28;20461;-37
2022/09/27 05:55:53;;;;;;;1.90;1.80;;;12.60;99.90;;;;;;5024846;28;20583;-59
2022/09/27 05:58:20;;;;;;;3.10;1.97;;;12.70;99.90;;;;;;5020693;28;20547;-60
2022/09/27 06:00:47;;;;;;;2.07;1.87;;;12.60;99.90;;;;;;5028200;28;20536;-56
2022/09/27 06:03:14;;;;;;;3.70;2.13;;;12.60;99.90;;;;;;5034875;28;20496;-60
2022/09/27 06:05:41;;;;;;;2.90;1.87;;;12.70;99.90;;;;;;5038439;28;20452;-57
2022/09/27 06:08:10;;;;;;;3.03;2.50;;;12.60;99.90;;;;;;5028598;28;20552;-53
2022/09/27 06:10:41;;;;;;;1.93;1.83;;;12.70;99.90;;;;;;5026976;28;20547;-49
2022/09/27 06:13:10;;;;;;;3.83;1.70;;;12.70;99.90;;;;;;5042531;28;20441;-57
2022/09/27 06:15:38;;;;;;;2.30;1.90;;;12.60;99.90;;;;;;5041729;28;20472;-57
2022/09/27 06:18:07;;;;;;;3.80;2.33;;;12.70;99.90;;;;;;5031831;28;20453;-60
2022/09/27 06:20:34;;;;;;;3.77;2.67;;;12.60;99.90;;;;;;5038365;28;20475;-48
2022/09/27 06:23:06;;;;;;;5.50;1.80;;;12.60;99.90;;;;;;5040933;28;20496;-59
2022/09/27 06:25:33;;;;;;;2.50;2.00;;;12.50;99.90;;;;;;5053822;28;20467;-49
2022/09/27 06:28:01;;;;;;;1.97;1.77;;;12.50;99.90;;;;;;5054670;28;20800;-56
2022/09/27 06:30:28;;;;;;;1.90;1.50;;;12.40;99.90;;;;;;5049620;23;20576;-59
2022/09/27 06:32:57;;;;;;;2.43;1.70;;;12.40;99.90;;;;;;5005747;28;20494;-59
2022/09/27 06:35:24;;;;;;;1.97;1.77;;;12.40;99.90;;;;;;5005655;28;20481;-59
2022/09/27 06:37:51;;;;;;;1.97;1.70;;;12.40;99.90;;;;;;5004773;28;20473;-59
2022/09/27 06:40:18;;;;;;;13.20;2.63;;;12.50;99.90;;;;;;5005225;28;20442;-59
2022/09/27 06:42:46;;;;;;;9.70;2.60;;;12.50;99.90;;;;;;5005260;28;20565;-60
2022/09/27 06:45:14;;;;;;;4.73;2.27;;;12.50;99.90;;;;;;5004466;28;20454;-61
2022/09/27 06:47:41;;;;;;;4.60;2.50;;;12.50;99.90;;;;;;5005042;28;20501;-55
2022/09/27 06:50:11;;;;;;;3.07;2.10;;;12.50;99.90;;;;;;5004631;28;20526;-59
2022/09/27 06:52:38;;;;;;;4.23;2.23;;;12.60;99.90;;;;;;5005180;28;20441;-61
2022/09/27 06:55:06;;;;;;;4.27;2.00;;;12.60;99.90;;;;;;5006320;28;20465;-62
2022/09/27 07:00:25;;;;;;;5.60;2.33;;;12.60;99.90;;;;;;5006527;28;20449;-62
2022/09/27 07:02:59;;;;;;;2.27;1.67;;;12.50;99.90;;;;;;5005244;28;20453;-58
2022/09/27 07:05:27;;;;;;;2.40;2.20;;;12.50;99.90;;;;;;5004780;28;20457;-60
2022/09/27 07:07:56;;;;;;;3.63;2.40;;;12.50;99.90;;;;;;5004503;28;20489;-54
2022/09/27 07:10:24;;;;;;;2.70;1.90;;;12.60;99.90;;;;;;5004647;28;20446;-60
2022/09/27 07:12:51;;;;;;;4.30;2.77;;;12.60;99.90;;;;;;5007249;28;20450;-60
2022/09/27 07:15:22;;;;;;;2.50;2.17;;;12.60;99.90;;;;;;5008652;28;20523;-61
2022/09/27 07:17:57;;;;;;;3.47;2.20;;;12.70;99.90;;;;;;5005158;28;20450;-61
2022/09/27 07:20:24;;;;;;;4.43;1.90;;;12.60;99.90;;;;;;5004666;28;20500;-56
2022/09/27 07:22:52;;;;;;;2.90;2.20;;;12.60;99.90;;;;;;5003398;28;20490;-59
2022/09/27 07:25:21;;;;;;;9.30;2.73;;;12.60;99.90;;;;;;5004988;28;20518;-60
2022/09/27 07:27:48;;;;;;;3.53;2.27;;;12.50;99.90;;;;;;5005614;28;20458;-61
2022/09/27 07:30:16;;;;;;;4.53;2.33;;;12.50;99.90;;;;;;5006630;28;20534;-57
2022/09/27 07:32:44;;;;;;;5.23;2.30;;;12.50;99.90;;;;;;5007121;28;20456;-59
2022/09/27 07:35:13;;;;;;;2.30;1.93;;;12.50;99.90;;;;;;5007522;28;20470;-61
2022/09/27 07:37:40;;;;;;;2.70;2.20;;;12.60;99.90;;;;;;5008290;28;20477;-60
2022/09/27 07:40:09;;;;;;;3.40;2.03;;;12.50;99.90;;;;;;5008057;28;20484;-56
2022/09/27 07:42:37;;;;;;;2.40;2.10;;;12.60;99.90;;;;;;5006949;28;20569;-60
2022/09/27 07:45:05;;;;;;;3.70;2.30;;;12.70;99.90;;;;;;5006580;28;20456;-62
2022/09/27 07:47:33;;;;;;;3.00;2.20;;;12.80;99.90;;;;;;5007011;28;20508;-62
2022/09/27 07:50:01;;;;;;;2.70;2.10;;;12.80;99.90;;;;;;5007407;28;20526;-60
2022/09/27 07:52:28;;;;;;;2.80;2.53;;;12.90;99.90;;;;;;5007320;28;20505;-53
2022/09/27 07:54:55;;;;;;;3.43;2.10;;;12.80;99.90;;;;;;5008239;28;20476;-61
2022/09/27 07:57:23;;;;;;;5.83;2.27;;;12.80;99.90;;;;;;5007231;28;20525;-62
2022/09/27 07:59:49;;;;;;;3.03;2.00;;;12.80;99.90;;;;;;5007192;28;20469;-65
2022/09/27 08:02:18;;;;;;;2.93;2.00;;;12.80;99.90;;;;;;5006830;28;20513;-60
2022/09/27 08:04:45;;;;;;;4.63;1.70;;;12.80;99.90;;;;;;5006716;28;20450;-65
2022/09/27 08:07:14;;;;;;;2.07;1.63;;;12.80;99.90;;;;;;5006901;28;20481;-60
2022/09/27 08:09:44;;;;;;;5.03;2.30;;;12.80;99.90;;;;;;5006068;28;20562;-50
2022/09/27 08:12:11;;;;;;;2.23;2.03;;;12.80;99.90;;;;;;5006208;28;20501;-59
2022/09/27 08:14:38;;;;;;;2.57;2.17;;;12.80;99.90;;;;;;5006315;28;20476;-59
2022/09/27 08:17:11;;;;;;;2.87;2.17;;;12.80;99.90;;;;;;5006725;28;20469;-60
2022/09/27 08:19:38;;;;;;;2.43;1.60;;;12.80;99.90;;;;;;5006916;28;20461;-53
2022/09/27 08:22:05;;;;;;;1.87;1.40;;;12.80;99.90;;;;;;5006086;28;20529;-66
2022/09/27 08:24:34;;;;;;;3.33;2.10;;;12.90;99.90;;;;;;5007028;28;20477;-57
2022/09/27 08:27:02;;;;;;;8.30;2.30;;;12.90;99.90;;;;;;5007200;28;20543;-60
2022/09/27 08:29:29;;;;;;;2.10;1.60;;;12.90;99.90;;;;;;5006007;28;20469;-60
2022/09/27 08:31:57;;;;;;;3.63;1.87;;;13.00;99.90;;;;;;5006709;28;20454;-60
2022/09/27 08:34:24;;;;;;;1.87;1.37;;;12.90;99.90;;;;;;5006473;28;20911;-61
2022/09/27 08:36:52;;;;;;;2.30;1.77;;;13.00;99.90;;;;;;5005814;28;20493;-62
2022/09/27 08:39:19;;;;;;;2.00;1.53;;;12.90;99.90;;;;;;5006213;28;20585;-60
2022/09/27 08:41:52;;;;;;;3.77;2.40;;;12.90;99.90;;;;;;5004823;28;20494;-60
2022/09/27 08:44:28;;;;;;;3.43;1.93;;;13.00;99.90;;;;;;5005133;28;20817;-62
2022/09/27 08:47:02;;;;;;;3.27;1.90;;;13.10;99.90;;;;;;5005795;28;20426;-50
2022/09/27 08:49:37;;;;;;;2.87;1.80;;;13.10;99.90;;;;;;5003329;28;20440;-60
2022/09/27 08:52:08;;;;;;;2.13;1.90;;;13.10;99.90;;;;;;5006645;28;20469;-62
2022/09/27 08:54:37;;;;;;;2.13;1.90;;;13.00;99.90;;;;;;5004615;28;20469;-56
2022/09/27 08:57:10;;;;;;;5.43;2.00;;;13.00;99.90;;;;;;5004944;28;20506;-56
2022/09/27 08:59:41;;;;;;;3.43;2.30;;;13.00;99.90;;;;;;5005628;28;20458;-61
2022/09/27 09:02:17;;;;;;;2.73;2.30;;;13.00;99.90;;;;;;5005936;28;20505;-59
2022/09/27 09:04:47;;;;;;;2.90;2.30;;;13.10;99.90;;;;;;5006299;28;20438;-61
2022/09/27 09:07:32;;;;;;;3.03;1.90;;;13.00;99.90;;;;;;5006072;28;20476;-60
2022/09/27 09:10:05;;;;;;;2.90;2.47;;;13.00;99.90;;;;;;5006213;28;20430;-59
2022/09/27 09:12:46;;;;;;;3.17;2.87;;;13.00;99.90;;;;;;5004807;28;20476;-56
2022/09/27 09:15:31;;;;;;;3.60;2.30;;;13.10;99.90;;;;;;5003792;28;20929;-62
2022/09/27 09:18:17;;;;;;;2.70;2.37;;;13.20;99.90;;;;;;5005243;28;20445;-59
2022/09/27 09:20:57;;;;;;;2.23;1.77;;;13.20;99.90;;;;;;5001774;28;20522;-58
2022/09/27 09:23:54;;;;;;;3.40;2.20;;;13.20;99.90;;;;;;5001225;28;20466;-57
2022/09/27 09:26:28;;;;;;;5.73;2.33;;;13.20;99.90;;;;;;5001218;28;20521;-61
2022/09/27 09:29:10;;;;;;;2.67;2.10;;;13.30;99.90;;;;;;5001352;28;20485;-59
2022/09/27 09:31:42;;;;;;;3.30;2.43;;;13.40;99.90;;;;;;5000809;28;20469;-56
2022/09/27 09:34:16;;;;;;;2.90;2.50;;;13.50;99.90;;;;;;5000471;28;20457;-61
2022/09/27 09:36:47;;;;;;;3.57;2.73;;;13.50;99.90;;;;;;5000476;28;20457;-54
2022/09/27 09:39:19;;;;;;;4.67;3.47;;;13.70;99.90;;;;;;5000967;28;20803;-61
2022/09/27 09:42:01;;;;;;;4.93;2.83;;;13.70;99.90;;;;;;5001538;28;20436;-56
2022/09/27 09:44:34;;;;;;;9.00;3.20;;;13.80;99.90;;;;;;5000815;28;20446;-59
2022/09/27 09:47:12;;;;;;;3.20;2.90;;;13.80;99.90;;;;;;5004920;28;20456;-60
2022/09/27 09:49:44;;;;;;;4.00;3.20;;;13.80;99.90;;;;;;5005316;28;20628;-53
2022/09/27 09:52:15;;;;;;;6.13;2.83;;;13.70;99.90;;;;;;5004479;28;20426;-59
2022/09/27 09:54:46;;;;;;;4.20;3.33;;;13.70;99.90;;;;;;5004644;28;20462;-59
2022/09/27 09:57:16;;;;;;;4.13;2.47;;;13.70;99.90;;;;;;5004033;28;20438;-60
2022/09/27 09:59:49;;;;;;;2.90;2.20;;;13.70;99.90;;;;;;5004657;28;20512;-57
2022/09/27 10:02:30;;;;;;;2.50;2.30;;;13.80;99.90;;;;;;5003716;28;20561;-61
2022/09/27 10:04:57;;;;;;;3.30;2.10;;;14.00;99.90;;;;;;5005016;28;20434;-60
2022/09/27 10:07:25;;;;;;;2.30;2.07;;;14.00;99.90;;;;;;5004532;28;20469;-61
2022/09/27 10:09:53;;;;;;;2.07;1.83;;;14.10;99.90;;;;;;5004450;28;20481;-58
2022/09/27 10:12:20;;;;;;;3.60;2.40;;;14.10;99.90;;;;;;5003796;28;20462;-60
2022/09/27 10:14:49;;;;;;;2.70;2.50;;;14.10;99.90;;;;;;5004397;28;20949;-60
2022/09/27 10:17:19;;;;;;;2.37;1.90;;;14.20;99.90;;;;;;5006769;28;20521;-62
2022/09/27 10:19:48;;;;;;;6.20;2.20;;;14.40;99.90;;;;;;5005604;28;20493;-60
2022/09/27 10:22:23;;;;;;;2.40;1.73;;;14.70;99.90;;;;;;5003174;28;20461;-55
2022/09/27 10:25:00;;;;;;;2.93;2.20;;;14.70;99.90;;;;;;5002878;28;20768;-60
2022/09/27 10:27:28;;;;;;;3.40;2.03;;;14.70;99.90;;;;;;5002969;28;20521;-56
2022/09/27 10:30:00;;;;;;;2.17;1.97;;;14.60;99.90;;;;;;5002653;28;20485;-54
2022/09/27 10:32:31;;;;;;;2.93;2.03;;;14.60;99.90;;;;;;5002718;28;20859;-61
2022/09/27 10:35:21;;;;;;;3.00;2.13;;;14.60;99.90;;;;;;5002893;28;20533;-58
2022/09/27 10:37:48;;;;;;;2.70;1.97;;;14.60;99.90;;;;;;5003782;28;20469;-59
2022/09/27 10:40:28;;;;;;;3.10;2.60;;;14.60;99.90;;;;;;5006834;28;20544;-56
2022/09/27 10:42:55;;;;;;;3.30;2.03;;;14.70;99.90;;;;;;5002658;28;20486;-59
2022/09/27 10:45:32;;;;;;;3.23;2.40;;;14.70;99.90;;;;;;5001719;28;20489;-61
2022/09/27 10:48:00;;;;;;;2.10;1.90;;;14.90;99.90;;;;;;5002321;28;20748;-60
2022/09/27 10:50:30;;;;;;;2.20;2.00;;;15.10;99.90;;;;;;5001675;28;20862;-61
2022/09/27 10:53:20;;;;;;;4.03;2.17;;;15.10;99.90;;;;;;5004395;28;20446;-62
2022/09/27 10:55:48;;;;;;;4.13;2.33;;;15.40;99.90;;;;;;5003808;28;20474;-61
2022/09/27 10:58:19;;;;;;;2.33;1.93;;;15.70;99.90;;;;;;5000345;28;20481;-58
2022/09/27 11:00:57;;;;;;;3.90;2.07;;;15.90;99.90;;;;;;5002084;28;20801;-59
2022/09/27 11:03:27;;;;;;;3.00;2.23;;;16.00;99.90;;;;;;5001707;28;20857;-59
2022/09/27 11:05:55;;;;;;;2.23;2.00;;;16.30;99.90;;;;;;5001698;28;20458;-59
2022/09/27 11:08:28;;;;;;;3.80;2.20;;;16.30;99.90;;;;;;5000785;28;20474;-57
2022/09/27 11:11:06;;;;;;;2.57;2.37;;;16.30;99.90;;;;;;5001613;28;20474;-60
2022/09/27 11:13:34;;;;;;;3.57;3.10;;;16.10;99.90;;;;;;5001334;28;20469;-57
2022/09/27 11:16:21;;;;;;;2.33;2.13;;;16.00;99.90;;;;;;5001619;28;20919;-60
2022/09/27 11:18:55;;;;;;;3.93;1.90;;;15.80;99.90;;;;;;5000995;28;20745;-62
2022/09/27 11:21:33;;;;;;;2.57;2.00;;;15.70;99.90;;;;;;5002275;28;20840;-62
2022/09/27 11:24:19;;;;;;;2.57;2.00;;;15.60;99.90;;;;;;5004198;28;20772;-55
2022/09/27 11:26:57;;;;;;;3.03;2.60;;;15.30;99.90;;;;;;5001945;28;20561;-58
2022/09/27 11:29:34;;;;;;;2.87;2.67;;;15.10;99.90;;;;;;5001783;28;20450;-59
2022/09/27 11:32:28;;;;;;;3.30;2.17;;;15.00;99.90;;;;;;5001632;28;20902;-56
2022/09/27 11:35:22;;;;;;;4.07;2.40;;;15.00;99.90;;;;;;4998417;28;20485;-56
2022/09/27 11:38:00;;;;;;;4.20;2.57;;;14.90;99.90;;;;;;5002918;28;20529;-61
2022/09/27 11:40:35;;;;;;;6.40;2.50;;;14.80;99.90;;;;;;5003564;28;20520;-59
2022/09/27 11:43:20;;;;;;;2.63;2.37;;;14.60;99.90;;;;;;5002438;28;20497;-55
2022/09/27 11:46:01;;;;;;;3.00;2.70;;;14.60;99.90;;;;;;5002709;28;20457;-54
2022/09/27 11:48:48;;;;;;;3.60;2.70;;;14.50;99.90;;;;;;5002573;28;20484;-59
2022/09/27 11:51:30;;;;;;;8.00;2.40;;;14.40;99.90;;;;;;5004036;28;20536;-57
2022/09/27 11:54:11;;;;;;;3.23;1.40;;;14.20;99.90;;;;;;5007687;28;20459;-55
2022/09/27 11:56:46;;;;;;;1.10;0.80;;;13.70;99.90;;;;;;5006379;28;20549;-57
2022/09/27 11:59:37;;;;;;;1.50;0.80;;;13.10;99.90;;;;;;5007572;28;20414;-60
2022/09/27 12:02:23;;;;;;;1.67;0.90;;;12.70;99.90;;;;;;5007760;28;20791;-59
2022/09/27 12:05:19;;;;;;;1.07;0.80;;;12.20;99.90;;;;;;5008692;28;20494;-52
2022/09/27 12:07:56;;;;;;;1.23;0.73;;;12.00;99.90;;;;;;5008169;28;20442;-58
2022/09/27 12:10:23;;;;;;;1.13;0.70;;;11.90;99.90;;;;;;5007774;28;20454;-60
2022/09/27 12:12:53;;;;;;;1.10;0.77;;;11.70;99.90;;;;;;5007582;28;20446;-60
2022/09/27 12:15:24;;;;;;;4.07;0.90;;;11.70;99.90;;;;;;5007332;28;20481;-59
2022/09/27 12:17:54;;;;;;;1.43;1.13;;;11.70;99.90;;;;;;5007485;28;20481;-60
2022/09/27 12:20:29;;;;;;;3.00;1.20;;;11.70;99.90;;;;;;5006997;28;20473;-61
2022/09/27 12:23:00;;;;;;;1.73;1.00;;;11.70;99.90;;;;;;5007023;28;20481;-58
2022/09/27 12:25:30;;;;;;;1.27;0.80;;;11.70;99.90;;;;;;5006994;28;20438;-55
2022/09/27 12:28:06;;;;;;;2.03;1.23;;;11.70;99.90;;;;;;5005982;28;20483;-62
2022/09/27 12:30:38;;;;;;;2.53;1.30;;;11.80;99.90;;;;;;5006027;28;20489;-57
2022/09/27 12:33:10;;;;;;;1.60;1.20;;;11.90;99.90;;;;;;5006053;28;20497;-56
2022/09/27 12:35:44;;;;;;;2.53;1.50;;;12.10;99.90;;;;;;5005933;28;20529;-60
2022/09/27 12:38:14;;;;;;;4.80;1.20;;;12.30;99.90;;;;;;5005120;28;20434;-52
2022/09/27 12:40:44;;;;;;;1.60;1.30;;;12.50;99.90;;;;;;5003604;28;20453;-58
2022/09/27 12:43:17;;;;;;;2.43;1.40;;;12.70;99.90;;;;;;5003462;28;20963;-59
2022/09/27 12:45:54;;;;;;;3.10;1.37;;;13.00;99.90;;;;;;5003632;28;20958;-58
2022/09/27 12:48:28;;;;;;;1.93;1.27;;;13.20;99.90;;;;;;5003297;28;20441;-55
2022/09/27 12:51:06;;;;;;;1.67;1.17;;;13.40;99.90;;;;;;5002401;28;20509;-60
2022/09/27 12:53:44;;;;;;;1.67;1.27;;;13.50;99.90;;;;;;5002513;28;20438;-59
2022/09/27 12:56:32;;;;;;;4.37;1.93;;;13.60;99.90;;;;;;5001959;28;20465;-60
2022/09/27 12:59:26;;;;;;;2.30;2.10;;;13.70;99.90;;;;;;5004580;28;20426;-61
2022/09/27 13:02:19;;;;;;;2.60;1.43;;;13.80;99.90;;;;;;5004136;28;20426;-56
2022/09/27 13:05:18;;;;;;;1.57;1.10;;;13.70;99.90;;;;;;4961074;28;20485;-60
2022/09/27 13:07:58;;;;;;;1.70;1.10;;;13.70;99.90;;;;;;4996705;28;20798;-52
2022/09/27 13:10:50;;;;;;;4.47;1.10;;;13.70;99.90;;;;;;5003079;28;20466;-54
2022/09/27 13:13:21;;;;;;;1.50;1.07;;;13.70;99.90;;;;;;4998554;28;20489;-61
2022/09/27 13:15:49;;;;;;;2.03;1.23;;;13.60;99.90;;;;;;5002446;28;20477;-61